sensor_id;sensor_type;location;lat;lon;timestamp;P1;durP1;ratioP1;P2;durP2;ratioP2
56102;SDS011;41970;48.774;9.280;2022-12-07T00:01:13;8.77;;;6.90;;
56102;SDS011;41970;48.774;9.280;2022-12-07T00:03:41;7.50;;;5.67;;
56102;SDS011;41970;48.774;9.280;2022-12-07T00:06:10;7.23;;;6.13;;
56102;SDS011;41970;48.774;9.280;2022-12-07T00:08:38;7.33;;;6.53;;
56102;SDS011;41970;48.774;9.280;2022-12-07T00:11:22;6.47;;;5.87;;
56102;SDS011;41970;48.774;9.280;2022-12-07T00:14:07;5.83;;;5.23;;
56102;SDS011;41970;48.774;9.280;2022-12-07T00:16:36;7.57;;;6.80;;
56102;SDS011;41970;48.774;9.280;2022-12-07T00:19:02;8.00;;;6.10;;
56102;SDS011;41970;48.774;9.280;2022-12-07T00:21:30;7.73;;;6.93;;
56102;SDS011;41970;48.774;9.280;2022-12-07T00:23:57;7.37;;;6.00;;
56102;SDS011;41970;48.774;9.280;2022-12-07T00:26:24;8.00;;;7.10;;
56102;SDS011;41970;48.774;9.280;2022-12-07T00:28:56;7.63;;;6.93;;
56102;SDS011;41970;48.774;9.280;2022-12-07T00:31:26;9.83;;;6.80;;
56102;SDS011;41970;48.774;9.280;2022-12-07T00:33:53;6.73;;;6.03;;
56102;SDS011;41970;48.774;9.280;2022-12-07T00:36:20;8.17;;;6.60;;
56102;SDS011;41970;48.774;9.280;2022-12-07T00:38:50;8.17;;;6.27;;
56102;SDS011;41970;48.774;9.280;2022-12-07T00:41:18;6.47;;;5.80;;
56102;SDS011;41970;48.774;9.280;2022-12-07T00:43:47;10.50;;;7.17;;
56102;SDS011;41970;48.774;9.280;2022-12-07T00:46:14;7.33;;;6.53;;
56102;SDS011;41970;48.774;9.280;2022-12-07T00:48:44;8.10;;;7.30;;
56102;SDS011;41970;48.774;9.280;2022-12-07T00:51:11;8.05;;;6.70;;
56102;SDS011;41970;48.774;9.280;2022-12-07T00:53:39;10.07;;;7.32;;
56102;SDS011;41970;48.774;9.280;2022-12-07T00:56:06;8.97;;;6.23;;
56102;SDS011;41970;48.774;9.280;2022-12-07T00:58:33;6.65;;;6.05;;
56102;SDS011;41970;48.774;9.280;2022-12-07T01:00:59;10.30;;;7.20;;
56102;SDS011;41970;48.774;9.280;2022-12-07T01:03:27;8.47;;;6.93;;
56102;SDS011;41970;48.774;9.280;2022-12-07T01:05:54;9.07;;;6.20;;
56102;SDS011;41970;48.774;9.280;2022-12-07T01:08:21;7.83;;;7.03;;
56102;SDS011;41970;48.774;9.280;2022-12-07T01:10:48;9.33;;;7.80;;
56102;SDS011;41970;48.774;9.280;2022-12-07T01:13:14;7.87;;;6.77;;
56102;SDS011;41970;48.774;9.280;2022-12-07T01:15:44;7.45;;;6.75;;
56102;SDS011;41970;48.774;9.280;2022-12-07T01:18:13;9.55;;;7.05;;
56102;SDS011;41970;48.774;9.280;2022-12-07T01:20:38;9.50;;;8.07;;
56102;SDS011;41970;48.774;9.280;2022-12-07T01:23:04;7.70;;;6.93;;
56102;SDS011;41970;48.774;9.280;2022-12-07T01:25:31;6.60;;;5.67;;
56102;SDS011;41970;48.774;9.280;2022-12-07T01:27:57;6.80;;;5.50;;
56102;SDS011;41970;48.774;9.280;2022-12-07T01:30:23;8.77;;;6.17;;
56102;SDS011;41970;48.774;9.280;2022-12-07T01:32:49;8.73;;;6.80;;
56102;SDS011;41970;48.774;9.280;2022-12-07T01:35:15;8.97;;;6.50;;
56102;SDS011;41970;48.774;9.280;2022-12-07T01:37:40;7.80;;;7.00;;
56102;SDS011;41970;48.774;9.280;2022-12-07T01:40:07;7.43;;;6.10;;
56102;SDS011;41970;48.774;9.280;2022-12-07T01:42:34;7.85;;;7.05;;
56102;SDS011;41970;48.774;9.280;2022-12-07T01:47:58;9.13;;;6.82;;
56102;SDS011;41970;48.774;9.280;2022-12-07T01:50:24;7.77;;;6.40;;
56102;SDS011;41970;48.774;9.280;2022-12-07T01:52:54;9.13;;;7.57;;
56102;SDS011;41970;48.774;9.280;2022-12-07T01:55:23;9.00;;;6.30;;
56102;SDS011;41970;48.774;9.280;2022-12-07T01:57:49;9.38;;;8.07;;
56102;SDS011;41970;48.774;9.280;2022-12-07T02:00:18;9.50;;;7.03;;
56102;SDS011;41970;48.774;9.280;2022-12-07T02:02:52;10.35;;;7.78;;
56102;SDS011;41970;48.774;9.280;2022-12-07T02:05:42;7.63;;;6.43;;
56102;SDS011;41970;48.774;9.280;2022-12-07T02:08:09;8.00;;;6.65;;
56102;SDS011;41970;48.774;9.280;2022-12-07T02:10:36;8.53;;;7.40;;
56102;SDS011;41970;48.774;9.280;2022-12-07T02:13:21;7.53;;;6.57;;
56102;SDS011;41970;48.774;9.280;2022-12-07T02:30:10;11.32;;;7.72;;
56102;SDS011;41970;48.774;9.280;2022-12-07T02:38:35;8.85;;;7.00;;
56102;SDS011;41970;48.774;9.280;2022-12-07T02:41:12;8.00;;;6.53;;
56102;SDS011;41970;48.774;9.280;2022-12-07T02:43:45;9.97;;;7.23;;
56102;SDS011;41970;48.774;9.280;2022-12-07T02:46:16;10.73;;;8.10;;
56102;SDS011;41970;48.774;9.280;2022-12-07T02:48:46;8.20;;;6.73;;
56102;SDS011;41970;48.774;9.280;2022-12-07T02:51:13;9.27;;;7.90;;
56102;SDS011;41970;48.774;9.280;2022-12-07T02:53:40;10.73;;;7.60;;
56102;SDS011;41970;48.774;9.280;2022-12-07T02:58:50;10.30;;;8.50;;
56102;SDS011;41970;48.774;9.280;2022-12-07T03:01:28;7.60;;;6.70;;
56102;SDS011;41970;48.774;9.280;2022-12-07T03:04:29;9.60;;;7.43;;
56102;SDS011;41970;48.774;9.280;2022-12-07T03:07:18;11.40;;;7.23;;
56102;SDS011;41970;48.774;9.280;2022-12-07T03:10:00;9.50;;;7.30;;
56102;SDS011;41970;48.774;9.280;2022-12-07T03:12:42;9.57;;;7.70;;
56102;SDS011;41970;48.774;9.280;2022-12-07T03:15:27;11.15;;;8.07;;
56102;SDS011;41970;48.774;9.280;2022-12-07T03:18:00;9.57;;;7.20;;
56102;SDS011;41970;48.774;9.280;2022-12-07T03:20:28;7.53;;;6.40;;
56102;SDS011;41970;48.774;9.280;2022-12-07T03:22:55;8.63;;;6.93;;
56102;SDS011;41970;48.774;9.280;2022-12-07T03:25:22;8.05;;;6.45;;
56102;SDS011;41970;48.774;9.280;2022-12-07T03:27:56;8.83;;;7.97;;
56102;SDS011;41970;48.774;9.280;2022-12-07T03:30:39;9.13;;;6.70;;
56102;SDS011;41970;48.774;9.280;2022-12-07T03:38:40;12.88;;;7.13;;
56102;SDS011;41970;48.774;9.280;2022-12-07T03:41:36;7.32;;;6.55;;
56102;SDS011;41970;48.774;9.280;2022-12-07T03:44:03;8.15;;;6.78;;
56102;SDS011;41970;48.774;9.280;2022-12-07T03:46:42;11.90;;;8.38;;
56102;SDS011;41970;48.774;9.280;2022-12-07T03:54:34;10.70;;;7.47;;
56102;SDS011;41970;48.774;9.280;2022-12-07T03:57:13;10.20;;;7.40;;
56102;SDS011;41970;48.774;9.280;2022-12-07T03:59:39;7.90;;;7.10;;
56102;SDS011;41970;48.774;9.280;2022-12-07T04:02:06;9.90;;;7.25;;
56102;SDS011;41970;48.774;9.280;2022-12-07T04:04:33;11.40;;;7.60;;
56102;SDS011;41970;48.774;9.280;2022-12-07T04:07:00;10.13;;;7.93;;
56102;SDS011;41970;48.774;9.280;2022-12-07T04:09:25;9.50;;;7.60;;
56102;SDS011;41970;48.774;9.280;2022-12-07T04:11:51;9.05;;;6.93;;
56102;SDS011;41970;48.774;9.280;2022-12-07T04:14:17;9.87;;;8.23;;
56102;SDS011;41970;48.774;9.280;2022-12-07T04:16:43;9.87;;;7.10;;
56102;SDS011;41970;48.774;9.280;2022-12-07T04:19:23;9.45;;;7.18;;
56102;SDS011;41970;48.774;9.280;2022-12-07T04:21:55;10.50;;;7.40;;
56102;SDS011;41970;48.774;9.280;2022-12-07T04:24:24;11.48;;;6.40;;
56102;SDS011;41970;48.774;9.280;2022-12-07T04:26:50;10.60;;;7.28;;
56102;SDS011;41970;48.774;9.280;2022-12-07T04:29:16;12.45;;;7.57;;
56102;SDS011;41970;48.774;9.280;2022-12-07T04:31:43;8.20;;;5.90;;
56102;SDS011;41970;48.774;9.280;2022-12-07T04:34:09;10.75;;;7.35;;
56102;SDS011;41970;48.774;9.280;2022-12-07T04:36:36;13.43;;;6.65;;
56102;SDS011;41970;48.774;9.280;2022-12-07T04:39:03;8.90;;;6.68;;
56102;SDS011;41970;48.774;9.280;2022-12-07T04:41:30;10.32;;;7.18;;
56102;SDS011;41970;48.774;9.280;2022-12-07T04:44:00;8.55;;;6.53;;
56102;SDS011;41970;48.774;9.280;2022-12-07T04:46:29;6.40;;;5.55;;
56102;SDS011;41970;48.774;9.280;2022-12-07T04:48:59;8.30;;;6.05;;
56102;SDS011;41970;48.774;9.280;2022-12-07T04:51:26;9.40;;;6.47;;
56102;SDS011;41970;48.774;9.280;2022-12-07T04:53:54;11.10;;;7.57;;
56102;SDS011;41970;48.774;9.280;2022-12-07T04:56:23;9.60;;;7.38;;
56102;SDS011;41970;48.774;9.280;2022-12-07T04:58:51;8.10;;;6.60;;
56102;SDS011;41970;48.774;9.280;2022-12-07T05:01:18;10.55;;;7.68;;
56102;SDS011;41970;48.774;9.280;2022-12-07T05:03:45;12.27;;;7.95;;
56102;SDS011;41970;48.774;9.280;2022-12-07T05:06:14;12.93;;;8.80;;
56102;SDS011;41970;48.774;9.280;2022-12-07T05:08:44;12.23;;;8.80;;
56102;SDS011;41970;48.774;9.280;2022-12-07T05:11:10;11.77;;;8.32;;
56102;SDS011;41970;48.774;9.280;2022-12-07T05:14:00;10.68;;;8.32;;
56102;SDS011;41970;48.774;9.280;2022-12-07T05:16:27;12.07;;;8.50;;
56102;SDS011;41970;48.774;9.280;2022-12-07T05:18:53;11.50;;;8.30;;
56102;SDS011;41970;48.774;9.280;2022-12-07T05:21:19;12.48;;;8.85;;
56102;SDS011;41970;48.774;9.280;2022-12-07T05:23:45;7.67;;;5.90;;
56102;SDS011;41970;48.774;9.280;2022-12-07T05:26:11;12.73;;;8.97;;
56102;SDS011;41970;48.774;9.280;2022-12-07T05:28:37;10.97;;;7.93;;
56102;SDS011;41970;48.774;9.280;2022-12-07T05:31:03;11.27;;;8.10;;
56102;SDS011;41970;48.774;9.280;2022-12-07T05:33:29;10.37;;;8.20;;
56102;SDS011;41970;48.774;9.280;2022-12-07T05:35:54;9.63;;;8.40;;
56102;SDS011;41970;48.774;9.280;2022-12-07T05:38:20;11.87;;;7.93;;
56102;SDS011;41970;48.774;9.280;2022-12-07T05:40:46;9.60;;;7.83;;
56102;SDS011;41970;48.774;9.280;2022-12-07T05:43:12;10.80;;;7.80;;
56102;SDS011;41970;48.774;9.280;2022-12-07T05:45:38;11.47;;;8.60;;
56102;SDS011;41970;48.774;9.280;2022-12-07T05:48:03;11.40;;;8.57;;
56102;SDS011;41970;48.774;9.280;2022-12-07T05:50:29;10.87;;;8.37;;
56102;SDS011;41970;48.774;9.280;2022-12-07T05:52:55;9.63;;;8.20;;
56102;SDS011;41970;48.774;9.280;2022-12-07T05:55:21;7.93;;;6.70;;
56102;SDS011;41970;48.774;9.280;2022-12-07T05:57:47;10.80;;;8.47;;
56102;SDS011;41970;48.774;9.280;2022-12-07T06:00:31;10.35;;;8.13;;
56102;SDS011;41970;48.774;9.280;2022-12-07T06:02:57;7.80;;;6.75;;
56102;SDS011;41970;48.774;9.280;2022-12-07T06:05:23;10.30;;;7.50;;
56102;SDS011;41970;48.774;9.280;2022-12-07T06:07:49;9.53;;;7.67;;
56102;SDS011;41970;48.774;9.280;2022-12-07T06:10:15;8.60;;;7.23;;
56102;SDS011;41970;48.774;9.280;2022-12-07T06:12:41;11.17;;;8.37;;
56102;SDS011;41970;48.774;9.280;2022-12-07T06:15:08;8.85;;;7.03;;
56102;SDS011;41970;48.774;9.280;2022-12-07T06:17:35;12.18;;;8.60;;
56102;SDS011;41970;48.774;9.280;2022-12-07T06:20:02;28.65;;;15.90;;
56102;SDS011;41970;48.774;9.280;2022-12-07T06:22:28;34.92;;;22.25;;
56102;SDS011;41970;48.774;9.280;2022-12-07T06:24:54;16.03;;;11.23;;
56102;SDS011;41970;48.774;9.280;2022-12-07T06:27:20;9.47;;;7.47;;
56102;SDS011;41970;48.774;9.280;2022-12-07T06:29:46;10.10;;;7.30;;
56102;SDS011;41970;48.774;9.280;2022-12-07T06:32:11;10.37;;;7.63;;
56102;SDS011;41970;48.774;9.280;2022-12-07T06:34:37;7.53;;;6.23;;
56102;SDS011;41970;48.774;9.280;2022-12-07T06:37:04;10.48;;;7.85;;
56102;SDS011;41970;48.774;9.280;2022-12-07T06:39:30;9.48;;;7.38;;
56102;SDS011;41970;48.774;9.280;2022-12-07T06:41:56;10.32;;;8.85;;
56102;SDS011;41970;48.774;9.280;2022-12-07T06:44:22;10.48;;;7.40;;
56102;SDS011;41970;48.774;9.280;2022-12-07T06:46:49;8.63;;;6.88;;
56102;SDS011;41970;48.774;9.280;2022-12-07T06:49:16;12.45;;;7.65;;
56102;SDS011;41970;48.774;9.280;2022-12-07T06:51:42;9.20;;;7.47;;
56102;SDS011;41970;48.774;9.280;2022-12-07T06:54:08;11.30;;;6.78;;
56102;SDS011;41970;48.774;9.280;2022-12-07T06:56:38;7.85;;;6.82;;
56102;SDS011;41970;48.774;9.280;2022-12-07T06:59:04;8.52;;;7.05;;
56102;SDS011;41970;48.774;9.280;2022-12-07T07:01:31;10.75;;;7.53;;
56102;SDS011;41970;48.774;9.280;2022-12-07T07:03:58;9.13;;;7.50;;
56102;SDS011;41970;48.774;9.280;2022-12-07T07:06:25;11.77;;;8.60;;
56102;SDS011;41970;48.774;9.280;2022-12-07T07:08:51;9.77;;;8.55;;
56102;SDS011;41970;48.774;9.280;2022-12-07T07:11:17;9.90;;;7.78;;
56102;SDS011;41970;48.774;9.280;2022-12-07T07:13:44;10.55;;;7.85;;
56102;SDS011;41970;48.774;9.280;2022-12-07T07:16:10;11.57;;;7.95;;
56102;SDS011;41970;48.774;9.280;2022-12-07T07:18:36;10.53;;;8.90;;
56102;SDS011;41970;48.774;9.280;2022-12-07T07:21:02;13.80;;;8.63;;
56102;SDS011;41970;48.774;9.280;2022-12-07T07:23:29;13.10;;;8.65;;
56102;SDS011;41970;48.774;9.280;2022-12-07T07:25:55;10.63;;;8.15;;
56102;SDS011;41970;48.774;9.280;2022-12-07T07:28:21;10.30;;;8.90;;
56102;SDS011;41970;48.774;9.280;2022-12-07T07:30:46;11.57;;;9.10;;
56102;SDS011;41970;48.774;9.280;2022-12-07T07:33:12;12.70;;;8.97;;
56102;SDS011;41970;48.774;9.280;2022-12-07T07:35:38;10.60;;;8.37;;
56102;SDS011;41970;48.774;9.280;2022-12-07T07:38:04;11.48;;;8.40;;
56102;SDS011;41970;48.774;9.280;2022-12-07T07:40:31;9.75;;;7.40;;
56102;SDS011;41970;48.774;9.280;2022-12-07T07:42:57;9.23;;;7.70;;
56102;SDS011;41970;48.774;9.280;2022-12-07T07:45:24;10.10;;;7.72;;
56102;SDS011;41970;48.774;9.280;2022-12-07T07:47:51;11.52;;;7.28;;
56102;SDS011;41970;48.774;9.280;2022-12-07T07:50:17;9.53;;;8.20;;
56102;SDS011;41970;48.774;9.280;2022-12-07T07:52:43;9.68;;;7.70;;
56102;SDS011;41970;48.774;9.280;2022-12-07T07:55:09;9.52;;;7.13;;
56102;SDS011;41970;48.774;9.280;2022-12-07T07:57:36;8.63;;;6.37;;
56102;SDS011;41970;48.774;9.280;2022-12-07T08:00:03;9.50;;;6.82;;
56102;SDS011;41970;48.774;9.280;2022-12-07T08:02:31;9.32;;;7.03;;
56102;SDS011;41970;48.774;9.280;2022-12-07T08:04:57;10.67;;;7.33;;
56102;SDS011;41970;48.774;9.280;2022-12-07T08:07:23;6.83;;;6.10;;
56102;SDS011;41970;48.774;9.280;2022-12-07T08:09:49;7.80;;;6.50;;
56102;SDS011;41970;48.774;9.280;2022-12-07T08:12:15;9.93;;;7.67;;
56102;SDS011;41970;48.774;9.280;2022-12-07T08:14:40;8.47;;;6.73;;
56102;SDS011;41970;48.774;9.280;2022-12-07T08:17:06;7.53;;;6.70;;
56102;SDS011;41970;48.774;9.280;2022-12-07T08:19:32;8.30;;;6.10;;
56102;SDS011;41970;48.774;9.280;2022-12-07T08:21:58;10.75;;;6.65;;
56102;SDS011;41970;48.774;9.280;2022-12-07T08:24:24;8.70;;;6.40;;
56102;SDS011;41970;48.774;9.280;2022-12-07T08:26:50;7.73;;;5.87;;
56102;SDS011;41970;48.774;9.280;2022-12-07T08:29:16;9.07;;;7.10;;
56102;SDS011;41970;48.774;9.280;2022-12-07T08:31:42;8.85;;;7.20;;
56102;SDS011;41970;48.774;9.280;2022-12-07T08:34:09;6.73;;;5.80;;
56102;SDS011;41970;48.774;9.280;2022-12-07T08:36:36;9.73;;;7.40;;
56102;SDS011;41970;48.774;9.280;2022-12-07T08:39:02;8.47;;;6.53;;
56102;SDS011;41970;48.774;9.280;2022-12-07T08:41:29;7.17;;;5.57;;
56102;SDS011;41970;48.774;9.280;2022-12-07T08:43:55;10.53;;;6.90;;
56102;SDS011;41970;48.774;9.280;2022-12-07T08:46:25;8.60;;;7.13;;
56102;SDS011;41970;48.774;9.280;2022-12-07T08:48:56;8.70;;;7.47;;
56102;SDS011;41970;48.774;9.280;2022-12-07T08:51:37;11.23;;;7.37;;
56102;SDS011;41970;48.774;9.280;2022-12-07T08:54:07;11.00;;;7.20;;
56102;SDS011;41970;48.774;9.280;2022-12-07T08:56:36;8.53;;;7.07;;
56102;SDS011;41970;48.774;9.280;2022-12-07T08:59:02;8.50;;;6.80;;
56102;SDS011;41970;48.774;9.280;2022-12-07T09:01:29;8.67;;;6.80;;
56102;SDS011;41970;48.774;9.280;2022-12-07T09:03:55;9.00;;;6.63;;
56102;SDS011;41970;48.774;9.280;2022-12-07T09:06:21;9.00;;;6.20;;
56102;SDS011;41970;48.774;9.280;2022-12-07T09:08:47;7.63;;;6.35;;
56102;SDS011;41970;48.774;9.280;2022-12-07T09:11:16;7.22;;;6.00;;
56102;SDS011;41970;48.774;9.280;2022-12-07T09:13:42;7.60;;;6.07;;
56102;SDS011;41970;48.774;9.280;2022-12-07T09:16:08;8.33;;;7.43;;
56102;SDS011;41970;48.774;9.280;2022-12-07T09:18:33;9.33;;;7.83;;
56102;SDS011;41970;48.774;9.280;2022-12-07T09:20:59;7.90;;;6.23;;
56102;SDS011;41970;48.774;9.280;2022-12-07T09:23:25;7.13;;;6.30;;
56102;SDS011;41970;48.774;9.280;2022-12-07T09:25:51;9.33;;;6.13;;
56102;SDS011;41970;48.774;9.280;2022-12-07T09:28:17;7.27;;;5.70;;
56102;SDS011;41970;48.774;9.280;2022-12-07T09:30:46;10.43;;;6.50;;
56102;SDS011;41970;48.774;9.280;2022-12-07T09:33:13;7.97;;;6.33;;
56102;SDS011;41970;48.774;9.280;2022-12-07T09:35:44;8.40;;;7.30;;
56102;SDS011;41970;48.774;9.280;2022-12-07T09:38:25;11.60;;;6.47;;
56102;SDS011;41970;48.774;9.280;2022-12-07T09:40:51;9.40;;;7.40;;
56102;SDS011;41970;48.774;9.280;2022-12-07T09:43:20;8.40;;;5.50;;
56102;SDS011;41970;48.774;9.280;2022-12-07T09:45:50;6.73;;;5.33;;
56102;SDS011;41970;48.774;9.280;2022-12-07T09:48:27;7.07;;;6.10;;
56102;SDS011;41970;48.774;9.280;2022-12-07T09:50:57;8.00;;;6.00;;
56102;SDS011;41970;48.774;9.280;2022-12-07T09:53:25;8.53;;;7.10;;
56102;SDS011;41970;48.774;9.280;2022-12-07T09:55:52;7.87;;;5.27;;
56102;SDS011;41970;48.774;9.280;2022-12-07T09:58:21;7.03;;;4.90;;
56102;SDS011;41970;48.774;9.280;2022-12-07T10:00:50;8.20;;;5.73;;
56102;SDS011;41970;48.774;9.280;2022-12-07T10:03:23;6.10;;;5.50;;
56102;SDS011;41970;48.774;9.280;2022-12-07T10:05:51;8.33;;;5.23;;
56102;SDS011;41970;48.774;9.280;2022-12-07T10:08:18;8.43;;;6.00;;
56102;SDS011;41970;48.774;9.280;2022-12-07T10:10:44;6.63;;;6.00;;
56102;SDS011;41970;48.774;9.280;2022-12-07T10:13:51;7.10;;;5.03;;
56102;SDS011;41970;48.774;9.280;2022-12-07T10:16:40;6.60;;;4.70;;
56102;SDS011;41970;48.774;9.280;2022-12-07T10:19:26;9.13;;;5.60;;
56102;SDS011;41970;48.774;9.280;2022-12-07T10:24:39;6.47;;;5.10;;
56102;SDS011;41970;48.774;9.280;2022-12-07T10:27:18;5.60;;;4.83;;
56102;SDS011;41970;48.774;9.280;2022-12-07T10:29:48;7.50;;;5.00;;
56102;SDS011;41970;48.774;9.280;2022-12-07T10:34:42;5.43;;;4.60;;
56102;SDS011;41970;48.774;9.280;2022-12-07T10:39:50;7.50;;;6.50;;
56102;SDS011;41970;48.774;9.280;2022-12-07T10:42:24;5.47;;;4.03;;
56102;SDS011;41970;48.774;9.280;2022-12-07T10:47:42;4.47;;;3.43;;
56102;SDS011;41970;48.774;9.280;2022-12-07T11:06:35;5.30;;;3.40;;
56102;SDS011;41970;48.774;9.280;2022-12-07T11:17:48;5.23;;;3.27;;
56102;SDS011;41970;48.774;9.280;2022-12-07T11:26:16;3.93;;;3.23;;
56102;SDS011;41970;48.774;9.280;2022-12-07T11:31:53;3.37;;;2.90;;
56102;SDS011;41970;48.774;9.280;2022-12-07T11:36:55;4.20;;;3.77;;
56102;SDS011;41970;48.774;9.280;2022-12-07T11:42:03;4.87;;;3.23;;
56102;SDS011;41970;48.774;9.280;2022-12-07T11:45:00;3.80;;;3.33;;
56102;SDS011;41970;48.774;9.280;2022-12-07T11:47:38;5.77;;;3.50;;
56102;SDS011;41970;48.774;9.280;2022-12-07T11:50:26;5.93;;;3.50;;
56102;SDS011;41970;48.774;9.280;2022-12-07T11:55:49;4.33;;;3.13;;
56102;SDS011;41970;48.774;9.280;2022-12-07T11:58:30;4.70;;;3.37;;
56102;SDS011;41970;48.774;9.280;2022-12-07T12:01:26;3.90;;;3.17;;
56102;SDS011;41970;48.774;9.280;2022-12-07T12:06:39;4.27;;;3.37;;
56102;SDS011;41970;48.774;9.280;2022-12-07T12:22:48;6.00;;;4.07;;
56102;SDS011;41970;48.774;9.280;2022-12-07T12:25:25;4.27;;;3.67;;
56102;SDS011;41970;48.774;9.280;2022-12-07T12:27:52;8.10;;;5.60;;
56102;SDS011;41970;48.774;9.280;2022-12-07T12:30:37;7.20;;;4.70;;
56102;SDS011;41970;48.774;9.280;2022-12-07T12:33:27;5.77;;;5.27;;
56102;SDS011;41970;48.774;9.280;2022-12-07T12:38:48;6.87;;;5.33;;
56102;SDS011;41970;48.774;9.280;2022-12-07T12:41:51;10.03;;;5.63;;
56102;SDS011;41970;48.774;9.280;2022-12-07T12:46:48;5.20;;;4.60;;
56102;SDS011;41970;48.774;9.280;2022-12-07T12:51:54;4.90;;;3.63;;
56102;SDS011;41970;48.774;9.280;2022-12-07T12:55:02;9.67;;;5.37;;
56102;SDS011;41970;48.774;9.280;2022-12-07T12:57:46;4.97;;;4.57;;
56102;SDS011;41970;48.774;9.280;2022-12-07T13:00:23;5.20;;;3.83;;
56102;SDS011;41970;48.774;9.280;2022-12-07T13:02:54;7.63;;;4.17;;
56102;SDS011;41970;48.774;9.280;2022-12-07T13:05:22;5.23;;;4.20;;
56102;SDS011;41970;48.774;9.280;2022-12-07T13:15:39;6.40;;;4.67;;
56102;SDS011;41970;48.774;9.280;2022-12-07T13:18:40;16.70;;;4.93;;
56102;SDS011;41970;48.774;9.280;2022-12-07T13:23:39;4.70;;;4.17;;
56102;SDS011;41970;48.774;9.280;2022-12-07T13:34:31;7.63;;;4.93;;
56102;SDS011;41970;48.774;9.280;2022-12-07T13:37:14;6.87;;;5.07;;
56102;SDS011;41970;48.774;9.280;2022-12-07T13:39:53;7.23;;;5.23;;
56102;SDS011;41970;48.774;9.280;2022-12-07T13:42:31;7.67;;;5.33;;
56102;SDS011;41970;48.774;9.280;2022-12-07T13:44:59;6.83;;;4.80;;
56102;SDS011;41970;48.774;9.280;2022-12-07T13:47:43;5.90;;;5.00;;
56102;SDS011;41970;48.774;9.280;2022-12-07T13:52:59;6.47;;;4.87;;
56102;SDS011;41970;48.774;9.280;2022-12-07T13:55:29;6.10;;;5.13;;
56102;SDS011;41970;48.774;9.280;2022-12-07T13:57:56;7.27;;;4.90;;
56102;SDS011;41970;48.774;9.280;2022-12-07T14:00:26;6.17;;;4.53;;
56102;SDS011;41970;48.774;9.280;2022-12-07T14:05:27;6.20;;;5.60;;
56102;SDS011;41970;48.774;9.280;2022-12-07T14:12:58;7.13;;;5.30;;
56102;SDS011;41970;48.774;9.280;2022-12-07T14:15:28;5.00;;;4.20;;
56102;SDS011;41970;48.774;9.280;2022-12-07T14:17:59;4.97;;;4.47;;
56102;SDS011;41970;48.774;9.280;2022-12-07T14:20:32;6.80;;;5.50;;
56102;SDS011;41970;48.774;9.280;2022-12-07T14:23:04;7.10;;;4.23;;
56102;SDS011;41970;48.774;9.280;2022-12-07T14:25:47;8.60;;;5.13;;
56102;SDS011;41970;48.774;9.280;2022-12-07T14:28:25;5.10;;;4.67;;
56102;SDS011;41970;48.774;9.280;2022-12-07T14:30:56;9.50;;;5.63;;
56102;SDS011;41970;48.774;9.280;2022-12-07T14:33:22;4.80;;;4.33;;
56102;SDS011;41970;48.774;9.280;2022-12-07T14:35:49;8.27;;;5.37;;
56102;SDS011;41970;48.774;9.280;2022-12-07T14:38:21;6.67;;;5.53;;
56102;SDS011;41970;48.774;9.280;2022-12-07T14:40:47;5.70;;;5.10;;
56102;SDS011;41970;48.774;9.280;2022-12-07T14:43:15;8.57;;;4.87;;
56102;SDS011;41970;48.774;9.280;2022-12-07T14:45:42;7.07;;;5.67;;
56102;SDS011;41970;48.774;9.280;2022-12-07T14:48:11;7.90;;;6.70;;
56102;SDS011;41970;48.774;9.280;2022-12-07T14:50:42;10.40;;;6.30;;
56102;SDS011;41970;48.774;9.280;2022-12-07T14:53:14;6.33;;;5.03;;
56102;SDS011;41970;48.774;9.280;2022-12-07T14:55:42;6.17;;;4.37;;
56102;SDS011;41970;48.774;9.280;2022-12-07T14:58:17;9.00;;;6.30;;
56102;SDS011;41970;48.774;9.280;2022-12-07T15:00:45;4.60;;;4.20;;
56102;SDS011;41970;48.774;9.280;2022-12-07T15:03:12;5.20;;;4.30;;
56102;SDS011;41970;48.774;9.280;2022-12-07T15:05:39;8.77;;;4.23;;
56102;SDS011;41970;48.774;9.280;2022-12-07T15:08:10;5.70;;;4.70;;
56102;SDS011;41970;48.774;9.280;2022-12-07T15:10:37;5.70;;;5.03;;
56102;SDS011;41970;48.774;9.280;2022-12-07T15:13:05;7.23;;;5.70;;
56102;SDS011;41970;48.774;9.280;2022-12-07T15:15:51;6.60;;;4.27;;
56102;SDS011;41970;48.774;9.280;2022-12-07T15:18:18;11.10;;;5.33;;
56102;SDS011;41970;48.774;9.280;2022-12-07T15:20:45;7.17;;;5.00;;
56102;SDS011;41970;48.774;9.280;2022-12-07T15:23:11;4.80;;;3.20;;
56102;SDS011;41970;48.774;9.280;2022-12-07T15:25:40;5.70;;;5.00;;
56102;SDS011;41970;48.774;9.280;2022-12-07T15:28:09;6.07;;;4.30;;
56102;SDS011;41970;48.774;9.280;2022-12-07T15:30:39;5.13;;;4.23;;
56102;SDS011;41970;48.774;9.280;2022-12-07T15:33:07;8.00;;;5.30;;
56102;SDS011;41970;48.774;9.280;2022-12-07T15:35:33;6.47;;;5.20;;
56102;SDS011;41970;48.774;9.280;2022-12-07T15:38:03;4.80;;;4.30;;
56102;SDS011;41970;48.774;9.280;2022-12-07T15:40:35;8.20;;;6.00;;
56102;SDS011;41970;48.774;9.280;2022-12-07T15:43:01;6.73;;;5.80;;
56102;SDS011;41970;48.774;9.280;2022-12-07T15:45:29;8.43;;;5.87;;
56102;SDS011;41970;48.774;9.280;2022-12-07T15:47:55;7.43;;;5.70;;
56102;SDS011;41970;48.774;9.280;2022-12-07T15:50:21;8.70;;;6.47;;
56102;SDS011;41970;48.774;9.280;2022-12-07T15:52:48;5.60;;;4.53;;
56102;SDS011;41970;48.774;9.280;2022-12-07T15:55:14;6.53;;;4.63;;
56102;SDS011;41970;48.774;9.280;2022-12-07T15:57:40;8.63;;;6.20;;
56102;SDS011;41970;48.774;9.280;2022-12-07T16:00:06;6.17;;;5.30;;
56102;SDS011;41970;48.774;9.280;2022-12-07T16:02:36;9.00;;;5.73;;
56102;SDS011;41970;48.774;9.280;2022-12-07T16:05:03;8.10;;;6.37;;
56102;SDS011;41970;48.774;9.280;2022-12-07T16:07:29;9.07;;;7.13;;
56102;SDS011;41970;48.774;9.280;2022-12-07T16:09:54;9.00;;;7.10;;
56102;SDS011;41970;48.774;9.280;2022-12-07T16:12:21;8.30;;;6.30;;
56102;SDS011;41970;48.774;9.280;2022-12-07T16:14:46;8.50;;;6.70;;
56102;SDS011;41970;48.774;9.280;2022-12-07T16:17:12;7.60;;;6.17;;
56102;SDS011;41970;48.774;9.280;2022-12-07T16:19:38;8.00;;;6.50;;
56102;SDS011;41970;48.774;9.280;2022-12-07T16:22:04;11.03;;;9.10;;
56102;SDS011;41970;48.774;9.280;2022-12-07T16:24:31;10.83;;;7.13;;
56102;SDS011;41970;48.774;9.280;2022-12-07T16:26:56;14.93;;;7.13;;
56102;SDS011;41970;48.774;9.280;2022-12-07T16:29:22;10.37;;;7.30;;
56102;SDS011;41970;48.774;9.280;2022-12-07T16:31:49;9.50;;;7.17;;
56102;SDS011;41970;48.774;9.280;2022-12-07T16:34:17;8.93;;;6.60;;
56102;SDS011;41970;48.774;9.280;2022-12-07T16:36:43;9.03;;;6.90;;
56102;SDS011;41970;48.774;9.280;2022-12-07T16:39:09;9.40;;;6.40;;
56102;SDS011;41970;48.774;9.280;2022-12-07T16:41:35;8.13;;;6.80;;
56102;SDS011;41970;48.774;9.280;2022-12-07T16:44:02;8.77;;;6.50;;
56102;SDS011;41970;48.774;9.280;2022-12-07T16:46:31;7.70;;;6.67;;
56102;SDS011;41970;48.774;9.280;2022-12-07T16:48:58;10.50;;;5.93;;
56102;SDS011;41970;48.774;9.280;2022-12-07T16:51:24;7.47;;;6.27;;
56102;SDS011;41970;48.774;9.280;2022-12-07T16:53:51;12.23;;;6.60;;
56102;SDS011;41970;48.774;9.280;2022-12-07T16:56:18;7.90;;;5.43;;
56102;SDS011;41970;48.774;9.280;2022-12-07T16:58:44;10.40;;;7.30;;
56102;SDS011;41970;48.774;9.280;2022-12-07T17:01:14;8.47;;;6.40;;
56102;SDS011;41970;48.774;9.280;2022-12-07T17:03:42;10.27;;;6.40;;
56102;SDS011;41970;48.774;9.280;2022-12-07T17:06:12;8.30;;;7.10;;
56102;SDS011;41970;48.774;9.280;2022-12-07T17:08:40;7.03;;;6.10;;
56102;SDS011;41970;48.774;9.280;2022-12-07T17:11:11;12.00;;;7.40;;
56102;SDS011;41970;48.774;9.280;2022-12-07T17:13:42;9.80;;;7.17;;
56102;SDS011;41970;48.774;9.280;2022-12-07T17:16:27;11.37;;;7.83;;
56102;SDS011;41970;48.774;9.280;2022-12-07T17:18:53;14.50;;;8.37;;
56102;SDS011;41970;48.774;9.280;2022-12-07T17:21:19;8.30;;;7.37;;